sensor_id;sensor_type;location;lat;lon;timestamp;pressure;altitude;pressure_sealevel;temperature;humidity
54465;BME280;40374;49.480;20.016;2023-03-05T10:37:47;94185.59;;;-0.29;100.00
54465;BME280;40374;49.480;20.016;2023-03-05T10:45:56;94174.47;;;0.50;100.00
54465;BME280;40374;49.480;20.016;2023-03-05T10:48:30;94167.81;;;0.76;100.00
54465;BME280;40374;49.480;20.016;2023-03-05T10:51:18;94172.88;;;0.94;100.00
54465;BME280;40374;49.480;20.016;2023-03-05T10:53:56;94162.16;;;1.18;100.00
54465;BME280;40374;49.480;20.016;2023-03-05T10:56:26;94170.09;;;1.35;100.00
54465;BME280;40374;49.480;20.016;2023-03-05T10:58:56;94167.03;;;1.43;100.00
54465;BME280;40374;49.480;20.016;2023-03-05T11:01:26;94161.88;;;1.53;100.00
54465;BME280;40374;49.480;20.016;2023-03-05T11:04:00;94158.97;;;1.55;100.00
54465;BME280;40374;49.480;20.016;2023-03-05T11:06:39;94157.22;;;1.60;100.00
54465;BME280;40374;49.480;20.016;2023-03-05T11:14:44;94153.44;;;1.56;100.00
54465;BME280;40374;49.480;20.016;2023-03-05T11:17:26;94141.22;;;1.55;100.00
54465;BME280;40374;49.480;20.016;2023-03-05T11:19:56;94131.75;;;1.59;100.00
54465;BME280;40374;49.480;20.016;2023-03-05T11:22:42;94143.81;;;1.50;100.00
54465;BME280;40374;49.480;20.016;2023-03-05T11:25:30;94135.38;;;1.70;100.00
54465;BME280;40374;49.480;20.016;2023-03-05T11:27:59;94121.31;;;1.53;100.00
54465;BME280;40374;49.480;20.016;2023-03-05T11:30:30;94131.88;;;1.48;100.00
54465;BME280;40374;49.480;20.016;2023-03-05T11:33:18;94115.78;;;1.54;100.00
54465;BME280;40374;49.480;20.016;2023-03-05T11:35:47;94129.38;;;1.41;100.00
54465;BME280;40374;49.480;20.016;2023-03-05T11:38:26;94125.84;;;1.35;100.00
54465;BME280;40374;49.480;20.016;2023-03-05T11:40:55;94134.41;;;1.42;100.00
54465;BME280;40374;49.480;20.016;2023-03-05T11:43:25;94125.44;;;1.44;100.00
54465;BME280;40374;49.480;20.016;2023-03-05T11:45:58;94119.91;;;1.45;100.00
54465;BME280;40374;49.480;20.016;2023-03-05T11:48:31;94119.66;;;1.47;100.00
54465;BME280;40374;49.480;20.016;2023-03-05T11:51:07;94121.75;;;1.28;100.00
54465;BME280;40374;49.480;20.016;2023-03-05T11:53:35;94110.31;;;1.05;100.00
54465;BME280;40374;49.480;20.016;2023-03-05T11:59:04;94109.50;;;0.88;100.00
54465;BME280;40374;49.480;20.016;2023-03-05T12:01:37;94109.50;;;0.88;100.00
54465;BME280;40374;49.480;20.016;2023-03-05T12:04:09;94121.53;;;0.78;100.00
54465;BME280;40374;49.480;20.016;2023-03-05T12:06:42;94111.94;;;0.60;100.00
54465;BME280;40374;49.480;20.016;2023-03-05T12:23:53;94110.22;;;0.37;100.00
54465;BME280;40374;49.480;20.016;2023-03-05T12:27:30;94108.06;;;0.63;100.00
54465;BME280;40374;49.480;20.016;2023-03-05T12:29:50;94103.31;;;0.65;100.00
54465;BME280;40374;49.480;20.016;2023-03-05T12:34:55;94105.31;;;0.75;100.00
54465;BME280;40374;49.480;20.016;2023-03-05T14:19:46;94074.13;;;-0.78;100.00
54465;BME280;40374;49.480;20.016;2023-03-05T14:22:29;94079.50;;;-0.62;100.00
54465;BME280;40374;49.480;20.016;2023-03-05T14:24:57;94084.66;;;-0.55;100.00
54465;BME280;40374;49.480;20.016;2023-03-05T14:27:25;94075.91;;;-0.44;100.00
54465;BME280;40374;49.480;20.016;2023-03-05T14:29:54;94096.13;;;-0.37;100.00
54465;BME280;40374;49.480;20.016;2023-03-05T14:32:35;94082.47;;;-0.46;100.00
54465;BME280;40374;49.480;20.016;2023-03-05T14:35:05;94091.31;;;-0.64;100.00
54465;BME280;40374;49.480;20.016;2023-03-05T14:37:39;94087.19;;;-0.60;100.00
54465;BME280;40374;49.480;20.016;2023-03-05T14:43:05;94076.41;;;-0.58;100.00
54465;BME280;40374;49.480;20.016;2023-03-05T14:45:37;94078.13;;;-0.64;100.00
54465;BME280;40374;49.480;20.016;2023-03-05T14:48:06;94062.19;;;-0.69;100.00
54465;BME280;40374;49.480;20.016;2023-03-05T14:50:36;94061.72;;;-0.66;100.00
54465;BME280;40374;49.480;20.016;2023-03-05T14:53:12;94060.56;;;-0.70;100.00
54465;BME280;40374;49.480;20.016;2023-03-05T14:55:41;94070.78;;;-0.50;100.00
54465;BME280;40374;49.480;20.016;2023-03-05T14:58:12;94071.66;;;-0.45;100.00
54465;BME280;40374;49.480;20.016;2023-03-05T15:00:42;94064.66;;;-0.39;100.00
54465;BME280;40374;49.480;20.016;2023-03-05T15:03:10;94069.00;;;-0.33;100.00
54465;BME280;40374;49.480;20.016;2023-03-05T15:05:39;94069.09;;;-0.28;100.00
54465;BME280;40374;49.480;20.016;2023-03-05T15:08:17;94062.16;;;-0.17;100.00
54465;BME280;40374;49.480;20.016;2023-03-05T15:10:46;94065.94;;;-0.13;100.00
54465;BME280;40374;49.480;20.016;2023-03-05T15:13:15;94062.91;;;-0.05;100.00
54465;BME280;40374;49.480;20.016;2023-03-05T15:15:43;94081.13;;;-0.20;100.00
54465;BME280;40374;49.480;20.016;2023-03-05T15:19:02;94075.19;;;0.02;100.00
54465;BME280;40374;49.480;20.016;2023-03-05T15:23:00;94076.34;;;-0.23;100.00
54465;BME280;40374;49.480;20.016;2023-03-05T15:30:02;94060.72;;;-0.36;100.00
54465;BME280;40374;49.480;20.016;2023-03-05T15:32:29;94077.06;;;-0.39;100.00
54465;BME280;40374;49.480;20.016;2023-03-05T15:35:00;94070.03;;;-0.34;100.00
54465;BME280;40374;49.480;20.016;2023-03-05T15:37:31;94076.81;;;-0.38;100.00
54465;BME280;40374;49.480;20.016;2023-03-05T15:39:58;94074.63;;;-0.41;100.00
54465;BME280;40374;49.480;20.016;2023-03-05T15:42:26;94078.06;;;-0.29;100.00
54465;BME280;40374;49.480;20.016;2023-03-05T15:44:53;94067.28;;;-0.39;100.00
54465;BME280;40374;49.480;20.016;2023-03-05T15:47:20;94069.00;;;-0.33;100.00
54465;BME280;40374;49.480;20.016;2023-03-05T15:49:51;94075.31;;;-0.34;100.00
54465;BME280;40374;49.480;20.016;2023-03-05T15:52:18;94067.66;;;-0.47;100.00
54465;BME280;40374;49.480;20.016;2023-03-05T15:54:46;94073.84;;;-0.42;100.00
54465;BME280;40374;49.480;20.016;2023-03-05T15:57:13;94066.63;;;-0.46;100.00
54465;BME280;40374;49.480;20.016;2023-03-05T15:59:41;94077.63;;;-0.49;100.00
54465;BME280;40374;49.480;20.016;2023-03-05T16:02:08;94066.38;;;-0.45;100.00
54465;BME280;40374;49.480;20.016;2023-03-05T16:04:36;94074.28;;;-0.45;100.00
54465;BME280;40374;49.480;20.016;2023-03-05T16:07:05;94071.44;;;-0.43;100.00
54465;BME280;40374;49.480;20.016;2023-03-05T16:09:37;94073.28;;;-0.55;100.00
54465;BME280;40374;49.480;20.016;2023-03-05T16:12:08;94062.38;;;-0.59;100.00
54465;BME280;40374;49.480;20.016;2023-03-05T16:14:38;94045.72;;;-0.59;100.00
54465;BME280;40374;49.480;20.016;2023-03-05T16:17:09;94036.22;;;-0.60;100.00
54465;BME280;40374;49.480;20.016;2023-03-05T16:19:39;94054.50;;;-0.71;100.00
54465;BME280;40374;49.480;20.016;2023-03-05T16:22:08;94049.22;;;-0.71;100.00
54465;BME280;40374;49.480;20.016;2023-03-05T16:24:36;94054.50;;;-0.71;100.00
54465;BME280;40374;49.480;20.016;2023-03-05T16:27:03;94057.13;;;-0.71;100.00
54465;BME280;40374;49.480;20.016;2023-03-05T16:29:32;94044.50;;;-0.80;100.00
54465;BME280;40374;49.480;20.016;2023-03-05T16:32:01;94054.72;;;-0.72;100.00
54465;BME280;40374;49.480;20.016;2023-03-05T16:34:30;94056.91;;;-0.69;100.00
54465;BME280;40374;49.480;20.016;2023-03-05T16:36:59;94065.06;;;-0.71;100.00
54465;BME280;40374;49.480;20.016;2023-03-05T16:39:30;94063.78;;;-0.68;100.00
54465;BME280;40374;49.480;20.016;2023-03-05T16:41:57;94067.22;;;-0.68;100.00
54465;BME280;40374;49.480;20.016;2023-03-05T16:44:25;94060.47;;;-0.75;100.00
54465;BME280;40374;49.480;20.016;2023-03-05T16:46:52;94074.25;;;-0.73;100.00
54465;BME280;40374;49.480;20.016;2023-03-05T16:49:20;94075.38;;;-0.81;100.00
54465;BME280;40374;49.480;20.016;2023-03-05T16:51:48;94080.31;;;-0.85;100.00
54465;BME280;40374;49.480;20.016;2023-03-05T16:54:15;94072.19;;;-0.83;100.00
54465;BME280;40374;49.480;20.016;2023-03-05T16:56:43;94063.91;;;-0.87;100.00
54465;BME280;40374;49.480;20.016;2023-03-05T16:59:11;94071.25;;;-0.77;100.00
54465;BME280;40374;49.480;20.016;2023-03-05T17:01:39;94066.78;;;-0.76;100.00
54465;BME280;40374;49.480;20.016;2023-03-05T17:04:08;94059.41;;;-0.74;100.00
54465;BME280;40374;49.480;20.016;2023-03-05T17:06:35;94059.16;;;-0.61;100.00
54465;BME280;40374;49.480;20.016;2023-03-05T17:09:03;94053.66;;;-0.48;100.00
54465;BME280;40374;49.480;20.016;2023-03-05T17:11:30;94055.38;;;-0.53;100.00
54465;BME280;40374;49.480;20.016;2023-03-05T17:13:58;94047.22;;;-0.52;100.00
54465;BME280;40374;49.480;20.016;2023-03-05T17:16:26;94050.63;;;-0.39;100.00
54465;BME280;40374;49.480;20.016;2023-03-05T17:18:54;94042.84;;;-0.46;100.00
54465;BME280;40374;49.480;20.016;2023-03-05T17:21:21;94031.81;;;-0.43;100.00
54465;BME280;40374;49.480;20.016;2023-03-05T17:23:49;94032.03;;;-0.45;100.00
54465;BME280;40374;49.480;20.016;2023-03-05T17:26:18;94024.59;;;-0.48;100.00
54465;BME280;40374;49.480;20.016;2023-03-05T17:28:46;94038.38;;;-0.46;100.00
54465;BME280;40374;49.480;20.016;2023-03-05T17:31:14;94042.72;;;-0.51;100.00
54465;BME280;40374;49.480;20.016;2023-03-05T17:33:43;94040.22;;;-0.46;100.00
54465;BME280;40374;49.480;20.016;2023-03-05T17:36:13;94036.09;;;-0.54;100.00
54465;BME280;40374;49.480;20.016;2023-03-05T17:38:42;94040.81;;;-0.56;100.00
54465;BME280;40374;49.480;20.016;2023-03-05T17:41:09;94034.38;;;-0.60;100.00
54465;BME280;40374;49.480;20.016;2023-03-05T17:43:37;94043.66;;;-0.57;100.00
54465;BME280;40374;49.480;20.016;2023-03-05T17:46:05;94039.66;;;-0.60;100.00
54465;BME280;40374;49.480;20.016;2023-03-05T17:48:34;94038.25;;;-0.51;100.00
54465;BME280;40374;49.480;20.016;2023-03-05T17:51:10;94043.06;;;-0.48;100.00
54465;BME280;40374;49.480;20.016;2023-03-05T17:53:39;94034.81;;;-0.51;100.00
54465;BME280;40374;49.480;20.016;2023-03-05T17:56:10;94046.53;;;-0.59;100.00
54465;BME280;40374;49.480;20.016;2023-03-05T17:58:39;94044.44;;;-0.45;100.00
54465;BME280;40374;49.480;20.016;2023-03-05T18:01:07;94046.16;;;-0.51;100.00
54465;BME280;40374;49.480;20.016;2023-03-05T18:03:36;94037.56;;;-0.46;100.00
54465;BME280;40374;49.480;20.016;2023-03-05T18:06:04;94042.34;;;-0.31;100.00
54465;BME280;40374;49.480;20.016;2023-03-05T18:08:31;94035.50;;;-0.56;100.00
54465;BME280;40374;49.480;20.016;2023-03-05T18:10:59;94046.13;;;-0.27;100.00
54465;BME280;40374;49.480;20.016;2023-03-05T18:13:27;94045.56;;;-0.29;100.00
54465;BME280;40374;49.480;20.016;2023-03-05T18:15:58;94041.63;;;-0.27;100.00
54465;BME280;40374;49.480;20.016;2023-03-05T18:18:26;94050.22;;;-0.19;100.00
54465;BME280;40374;49.480;20.016;2023-03-05T18:20:54;94044.47;;;-0.16;100.00
54465;BME280;40374;49.480;20.016;2023-03-05T18:23:22;94043.94;;;-0.30;100.00
54465;BME280;40374;49.480;20.016;2023-03-05T18:25:50;94049.59;;;-0.38;100.00
54465;BME280;40374;49.480;20.016;2023-03-05T18:28:18;94043.38;;;-0.32;100.00
54465;BME280;40374;49.480;20.016;2023-03-05T18:30:46;94041.59;;;-0.55;100.00
54465;BME280;40374;49.480;20.016;2023-03-05T18:33:19;94031.56;;;-0.42;100.00
54465;BME280;40374;49.480;20.016;2023-03-05T18:35:48;94034.59;;;-0.50;100.00
54465;BME280;40374;49.480;20.016;2023-03-05T18:38:22;94018.50;;;-0.48;100.00
54465;BME280;40374;49.480;20.016;2023-03-05T18:40:50;94035.81;;;-0.41;100.00
54465;BME280;40374;49.480;20.016;2023-03-05T18:43:19;94036.19;;;-0.49;100.00
54465;BME280;40374;49.480;20.016;2023-03-05T18:45:49;94043.31;;;-0.61;100.00
54465;BME280;40374;49.480;20.016;2023-03-05T18:48:18;94037.84;;;-0.71;100.00
54465;BME280;40374;49.480;20.016;2023-03-05T18:50:49;94032.44;;;-0.65;100.00
54465;BME280;40374;49.480;20.016;2023-03-05T18:53:18;94023.81;;;-0.60;100.00
54465;BME280;40374;49.480;20.016;2023-03-05T18:55:46;94026.91;;;-0.63;100.00
54465;BME280;40374;49.480;20.016;2023-03-05T18:58:18;94039.66;;;-0.60;100.00
54465;BME280;40374;49.480;20.016;2023-03-05T19:00:46;94018.88;;;-0.68;100.00
54465;BME280;40374;49.480;20.016;2023-03-05T19:03:15;94027.81;;;-0.57;100.00
54465;BME280;40374;49.480;20.016;2023-03-05T19:05:47;94028.28;;;-0.60;100.00
54465;BME280;40374;49.480;20.016;2023-03-05T19:08:16;94027.13;;;-0.53;100.00
54465;BME280;40374;49.480;20.016;2023-03-05T19:10:44;94034.38;;;-0.60;100.00
54465;BME280;40374;49.480;20.016;2023-03-05T19:13:16;94015.47;;;-0.69;100.00
54465;BME280;40374;49.480;20.016;2023-03-05T19:15:54;94026.34;;;-0.65;100.00
54465;BME280;40374;49.480;20.016;2023-03-05T19:18:22;94034.16;;;-0.82;100.00
54465;BME280;40374;49.480;20.016;2023-03-05T19:20:53;94036.81;;;-0.70;100.00
54465;BME280;40374;49.480;20.016;2023-03-05T19:23:22;94029.16;;;-0.84;100.00
54465;BME280;40374;49.480;20.016;2023-03-05T19:25:51;94033.50;;;-0.77;100.00
54465;BME280;40374;49.480;20.016;2023-03-05T19:28:19;94042.34;;;-0.84;100.00
54465;BME280;40374;49.480;20.016;2023-03-05T19:30:48;94039.56;;;-0.77;100.00
54465;BME280;40374;49.480;20.016;2023-03-05T19:33:16;94039.69;;;-0.84;100.00
54465;BME280;40374;49.480;20.016;2023-03-05T19:35:43;94040.84;;;-0.79;100.00
54465;BME280;40374;49.480;20.016;2023-03-05T19:38:12;94044.50;;;-0.80;100.00
54465;BME280;40374;49.480;20.016;2023-03-05T19:40:42;94031.31;;;-0.80;100.00
54465;BME280;40374;49.480;20.016;2023-03-05T19:43:09;94037.94;;;-0.78;100.00
54465;BME280;40374;49.480;20.016;2023-03-05T19:45:37;94032.78;;;-0.73;100.00
54465;BME280;40374;49.480;20.016;2023-03-05T19:48:05;94032.56;;;-0.71;100.00
54465;BME280;40374;49.480;20.016;2023-03-05T19:50:32;94027.97;;;-0.76;100.00
54465;BME280;40374;49.480;20.016;2023-03-05T19:53:01;94028.09;;;-0.71;100.00
54465;BME280;40374;49.480;20.016;2023-03-05T19:55:28;94040.00;;;-0.68;100.00
54465;BME280;40374;49.480;20.016;2023-03-05T19:57:58;94032.22;;;-0.75;100.00
54465;BME280;40374;49.480;20.016;2023-03-05T20:00:25;94024.88;;;-0.73;100.00
54465;BME280;40374;49.480;20.016;2023-03-05T20:02:53;94029.47;;;-0.80;100.00
54465;BME280;40374;49.480;20.016;2023-03-05T20:05:21;94052.41;;;-0.80;100.00
54465;BME280;40374;49.480;20.016;2023-03-05T20:07:52;94045.88;;;-0.78;100.00
54465;BME280;40374;49.480;20.016;2023-03-05T20:10:19;94031.22;;;-0.86;100.00
54465;BME280;40374;49.480;20.016;2023-03-05T20:12:48;94040.94;;;-0.86;100.00
54465;BME280;40374;49.480;20.016;2023-03-05T20:15:17;94031.22;;;-0.86;100.00
54465;BME280;40374;49.480;20.016;2023-03-05T20:17:45;94025.47;;;-0.83;100.00
54465;BME280;40374;49.480;20.016;2023-03-05T20:20:14;94025.09;;;-0.74;100.00
54465;BME280;40374;49.480;20.016;2023-03-05T20:22:43;94019.25;;;-0.76;100.00
54465;BME280;40374;49.480;20.016;2023-03-05T20:25:13;94026.38;;;-0.77;100.00
54465;BME280;40374;49.480;20.016;2023-03-05T20:27:42;94022.22;;;-0.73;100.00
54465;BME280;40374;49.480;20.016;2023-03-05T20:30:12;94016.91;;;-0.61;100.00
54465;BME280;40374;49.480;20.016;2023-03-05T20:32:41;94012.19;;;-0.59;100.00
54465;BME280;40374;49.480;20.016;2023-03-05T20:35:18;94004.41;;;-0.54;100.00
54465;BME280;40374;49.480;20.016;2023-03-05T20:37:46;94007.03;;;-0.54;100.00
54465;BME280;40374;49.480;20.016;2023-03-05T20:40:26;93998.19;;;-0.59;100.00
54465;BME280;40374;49.480;20.016;2023-03-05T20:42:53;94007.38;;;-0.50;100.00
54465;BME280;40374;49.480;20.016;2023-03-05T20:45:21;94013.25;;;-0.60;100.00
54465;BME280;40374;49.480;20.016;2023-03-05T20:47:48;94014.84;;;-0.59;100.00
54465;BME280;40374;49.480;20.016;2023-03-05T20:50:15;94016.91;;;-0.61;100.00
54465;BME280;40374;49.480;20.016;2023-03-05T20:52:44;94003.88;;;-0.79;100.00
54465;BME280;40374;49.480;20.016;2023-03-05T20:55:11;94001.13;;;-0.85;100.00
54465;BME280;40374;49.480;20.016;2023-03-05T20:57:39;94012.38;;;-0.77;100.00
54465;BME280;40374;49.480;20.016;2023-03-05T21:00:08;94004.81;;;-0.86;100.00
54465;BME280;40374;49.480;20.016;2023-03-05T21:02:36;93998.63;;;-1.03;100.00
54465;BME280;40374;49.480;20.016;2023-03-05T21:05:04;94002.53;;;-0.94;100.00
54465;BME280;40374;49.480;20.016;2023-03-05T21:07:32;94001.50;;;-1.05;100.00
54465;BME280;40374;49.480;20.016;2023-03-05T21:10:00;94001.25;;;-1.03;100.00
54465;BME280;40374;49.480;20.016;2023-03-05T21:12:31;93986.91;;;-1.07;100.00
54465;BME280;40374;49.480;20.016;2023-03-05T21:14:58;93984.41;;;-1.02;100.00
54465;BME280;40374;49.480;20.016;2023-03-05T21:17:27;93987.97;;;-0.96;100.00
54465;BME280;40374;49.480;20.016;2023-03-05T21:19:54;93976.59;;;-0.97;100.00
54465;BME280;40374;49.480;20.016;2023-03-05T21:22:22;93990.56;;;-0.85;100.00
54465;BME280;40374;49.480;20.016;2023-03-05T21:24:49;93986.00;;;-0.89;100.00
54465;BME280;40374;49.480;20.016;2023-03-05T21:27:28;93984.28;;;-0.95;100.00
54465;BME280;40374;49.480;20.016;2023-03-05T21:29:56;93975.22;;;-0.88;100.00
54465;BME280;40374;49.480;20.016;2023-03-05T21:32:23;93972.09;;;-0.85;100.00
54465;BME280;40374;49.480;20.016;2023-03-05T21:34:51;93970.16;;;-0.89;100.00
54465;BME280;40374;49.480;20.016;2023-03-05T21:37:19;93972.41;;;-0.69;100.00
54465;BME280;40374;49.480;20.016;2023-03-05T21:39:46;93969.31;;;-0.78;100.00
54465;BME280;40374;49.480;20.016;2023-03-05T21:42:14;93961.38;;;-0.66;100.00
54465;BME280;40374;49.480;20.016;2023-03-05T21:44:41;93967.78;;;-0.62;100.00
54465;BME280;40374;49.480;20.016;2023-03-05T21:47:09;93962.22;;;-0.49;100.00
54465;BME280;40374;49.480;20.016;2023-03-05T21:49:36;93954.31;;;-0.49;100.00
54465;BME280;40374;49.480;20.016;2023-03-05T21:52:05;93954.06;;;-0.47;100.00
54465;BME280;40374;49.480;20.016;2023-03-05T21:54:38;93955.69;;;-0.46;100.00
54465;BME280;40374;49.480;20.016;2023-03-05T21:57:08;93945.94;;;-0.57;100.00
54465;BME280;40374;49.480;20.016;2023-03-05T21:59:39;93955.53;;;-0.39;100.00
54465;BME280;40374;49.480;20.016;2023-03-05T22:02:12;93948.75;;;-0.35;100.00
54465;BME280;40374;49.480;20.016;2023-03-05T22:04:39;93945.91;;;-0.46;100.00
54465;BME280;40374;49.480;20.016;2023-03-05T22:07:08;93940.53;;;-0.51;100.00
54465;BME280;40374;49.480;20.016;2023-03-05T22:09:35;93946.06;;;-0.52;100.00
54465;BME280;40374;49.480;20.016;2023-03-05T22:12:03;93941.94;;;-0.60;100.00
54465;BME280;40374;49.480;20.016;2023-03-05T22:14:32;93949.13;;;-0.44;100.00
54465;BME280;40374;49.480;20.016;2023-03-05T22:17:02;93943.66;;;-0.54;100.00
54465;BME280;40374;49.480;20.016;2023-03-05T22:19:30;93947.88;;;-0.53;100.00
54465;BME280;40374;49.480;20.016;2023-03-05T22:21:58;93949.13;;;-0.44;100.00
54465;BME280;40374;49.480;20.016;2023-03-05T22:24:25;93936.28;;;-0.52;100.00
54465;BME280;40374;49.480;20.016;2023-03-05T22:26:53;93936.09;;;-0.62;100.00
54465;BME280;40374;49.480;20.016;2023-03-05T22:29:20;93950.28;;;-0.51;100.00
54465;BME280;40374;49.480;20.016;2023-03-05T22:31:47;93941.25;;;-0.55;100.00
54465;BME280;40374;49.480;20.016;2023-03-05T22:34:15;93931.38;;;-0.60;100.00
54465;BME280;40374;49.480;20.016;2023-03-05T22:36:42;93930.81;;;-0.62;100.00
54465;BME280;40374;49.480;20.016;2023-03-05T22:39:09;93912.28;;;-0.50;100.00
54465;BME280;40374;49.480;20.016;2023-03-05T22:41:40;93901.00;;;-0.46;100.00
54465;BME280;40374;49.480;20.016;2023-03-05T22:44:07;93904.84;;;-0.53;100.00
54465;BME280;40374;49.480;20.016;2023-03-05T22:46:35;93909.41;;;-0.49;100.00
54465;BME280;40374;49.480;20.016;2023-03-05T22:49:02;93930.25;;;-0.35;100.00
54465;BME280;40374;49.480;20.016;2023-03-05T22:51:30;93918.75;;;-0.29;100.00
54465;BME280;40374;49.480;20.016;2023-03-05T22:53:57;93929.06;;;-0.28;100.00
54465;BME280;40374;49.480;20.016;2023-03-05T22:56:25;93929.00;;;-0.16;100.00
54465;BME280;40374;49.480;20.016;2023-03-05T22:58:52;93928.66;;;-0.19;100.00
54465;BME280;40374;49.480;20.016;2023-03-05T23:01:22;93929.00;;;-0.16;100.00
54465;BME280;40374;49.480;20.016;2023-03-05T23:03:50;93935.06;;;-0.32;100.00
54465;BME280;40374;49.480;20.016;2023-03-05T23:06:24;93925.03;;;-0.30;100.00
54465;BME280;40374;49.480;20.016;2023-03-05T23:08:53;93937.81;;;-0.27;100.00
54465;BME280;40374;49.480;20.016;2023-03-05T23:11:21;93926.25;;;-0.21;100.00
54465;BME280;40374;49.480;20.016;2023-03-05T23:13:48;93931.53;;;-0.21;100.00
54465;BME280;40374;49.480;20.016;2023-03-05T23:16:16;93924.34;;;-0.26;100.00
54465;BME280;40374;49.480;20.016;2023-03-05T23:18:43;93906.97;;;-0.22;100.00
54465;BME280;40374;49.480;20.016;2023-03-05T23:21:11;93913.72;;;-0.14;100.00
54465;BME280;40374;49.480;20.016;2023-03-05T23:23:38;93914.31;;;-0.24;100.00
54465;BME280;40374;49.480;20.016;2023-03-05T23:26:08;93906.56;;;-0.30;100.00
54465;BME280;40374;49.480;20.016;2023-03-05T23:28:35;93911.22;;;-0.21;100.00
54465;BME280;40374;49.480;20.016;2023-03-05T23:31:02;93911.44;;;-0.22;100.00
54465;BME280;40374;49.480;20.016;2023-03-05T23:33:30;93905.81;;;-0.43;100.00
54465;BME280;40374;49.480;20.016;2023-03-05T23:35:59;93914.22;;;-0.46;100.00
54465;BME280;40374;49.480;20.016;2023-03-05T23:38:28;93905.88;;;-0.54;100.00
54465;BME280;40374;49.480;20.016;2023-03-05T23:40:56;93913.56;;;-0.53;100.00
54465;BME280;40374;49.480;20.016;2023-03-05T23:43:28;93921.59;;;-0.48;100.00
54465;BME280;40374;49.480;20.016;2023-03-05T23:45:58;93920.47;;;-0.64;100.00
54465;BME280;40374;49.480;20.016;2023-03-05T23:48:29;93918.34;;;-0.67;100.00
54465;BME280;40374;49.480;20.016;2023-03-05T23:50:56;93913.84;;;-0.66;100.00
54465;BME280;40374;49.480;20.016;2023-03-05T23:53:28;93905.44;;;-0.63;100.00
54465;BME280;40374;49.480;20.016;2023-03-05T23:55:57;93904.63;;;-0.64;100.00
54465;BME280;40374;49.480;20.016;2023-03-05T23:58:24;93919.88;;;-0.54;100.00
